createdAt,value
2022-08-05T00:01:30.259Z,67.48
2022-08-05T00:04:03.697Z,66.94
2022-08-05T00:06:35.935Z,66.68
2022-08-05T00:09:03.957Z,65.89
2022-08-05T00:11:35.058Z,65.71
2022-08-05T00:14:13.079Z,65.86
2022-08-05T00:16:52.595Z,65.96
2022-08-05T00:19:22.303Z,65.89
2022-08-05T00:21:49.746Z,66.03
2022-08-05T00:24:19.230Z,66.52
2022-08-05T00:26:52.828Z,66.98
2022-08-05T00:29:25.449Z,67.07
2022-08-05T00:32:12.220Z,67.32
2022-08-05T00:35:05.143Z,67.74
2022-08-05T00:37:51.097Z,68.23
2022-08-05T00:40:17.976Z,68.46
2022-08-05T00:42:54.875Z,68.76
2022-08-05T00:45:37.829Z,68.84
2022-08-05T00:48:07.403Z,69.27
2022-08-05T00:50:34.244Z,69.26
2022-08-05T00:53:01.030Z,69.36
2022-08-05T00:55:34.077Z,69.57
2022-08-05T00:58:11.291Z,69.63
2022-08-05T01:00:39.644Z,69.53
2022-08-05T01:03:07.922Z,69.50
2022-08-05T01:05:35.045Z,69.64
2022-08-05T01:08:30.704Z,69.90
2022-08-05T01:10:54.750Z,69.86
2022-08-05T01:13:57.404Z,70.06
2022-08-05T01:16:31.584Z,70.05
2022-08-05T01:19:06.747Z,70.22
2022-08-05T01:22:05.515Z,70.42
2022-08-05T01:24:41.281Z,70.56
2022-08-05T01:27:55.071Z,70.41
2022-08-05T01:30:34.784Z,71.02
2022-08-05T01:33:08.371Z,71.12
2022-08-05T01:35:50.837Z,71.29
2022-08-05T01:38:27.610Z,71.62
2022-08-05T01:40:58.686Z,71.51
2022-08-05T01:43:28.092Z,71.39
2022-08-05T01:45:56.716Z,71.68
2022-08-05T01:48:26.950Z,71.70
2022-08-05T01:50:56.482Z,71.84
2022-08-05T01:53:54.668Z,71.70
2022-08-05T01:58:11.162Z,72.00
2022-08-05T01:59:06.550Z,72.30
2022-08-05T02:01:39.858Z,71.98
2022-08-05T02:04:09.306Z,71.89
2022-08-05T02:06:38.950Z,71.77
2022-08-05T02:09:07.307Z,72.06
2022-08-05T02:11:52.566Z,71.71
2022-08-05T02:14:52.524Z,71.70
2022-08-05T02:18:29.333Z,72.02
2022-08-05T02:20:28.024Z,72.06
2022-08-05T02:22:59.759Z,72.11
2022-08-05T02:25:33.264Z,72.37
2022-08-05T02:28:02.415Z,72.44
2022-08-05T02:30:56.690Z,72.84
2022-08-05T02:33:38.304Z,72.64
2022-08-05T02:36:09.397Z,72.42
2022-08-05T02:38:37.508Z,72.57
2022-08-05T02:41:14.771Z,72.15
2022-08-05T02:44:02.870Z,72.08
2022-08-05T02:46:33.755Z,72.16
2022-08-05T02:49:01.793Z,72.16
2022-08-05T02:52:01.216Z,71.89
2022-08-05T02:54:34.801Z,71.66
2022-08-05T02:57:10.164Z,72.03
2022-08-05T02:59:55.333Z,72.05
2022-08-05T03:02:29.764Z,72.29
2022-08-05T03:04:57.898Z,72.74
2022-08-05T03:07:59.248Z,72.78
2022-08-05T03:10:15.788Z,72.62
2022-08-05T03:12:51.914Z,72.68
2022-08-05T03:15:20.183Z,72.56
2022-08-05T03:17:46.808Z,72.39
2022-08-05T03:20:13.852Z,72.61
2022-08-05T03:22:46.827Z,72.41
2022-08-05T03:25:33.787Z,72.34
2022-08-05T03:28:08.167Z,72.83
2022-08-05T03:30:36.800Z,72.30
2022-08-05T03:33:07.484Z,72.56
2022-08-05T03:35:40.980Z,72.17
2022-08-05T03:38:11.615Z,72.11
2022-08-05T03:40:45.168Z,72.24
2022-08-05T03:43:58.675Z,72.45
2022-08-05T03:46:01.680Z,72.61
2022-08-05T03:48:29.436Z,73.17
2022-08-05T03:51:04.870Z,73.19
2022-08-05T03:55:00.073Z,73.44
2022-08-05T03:57:41.571Z,73.31
2022-08-05T04:00:05.733Z,73.60
2022-08-05T04:02:37.490Z,73.42
2022-08-05T04:05:09.844Z,73.68
2022-08-05T04:07:57.891Z,73.51
2022-08-05T04:10:27.947Z,73.57
2022-08-05T04:12:56.403Z,73.46
2022-08-05T04:15:27.722Z,73.25
2022-08-05T04:18:03.226Z,73.65
2022-08-05T04:20:29.981Z,73.53
2022-08-05T04:22:58.345Z,73.69
2022-08-05T04:25:38.519Z,73.19
2022-08-05T04:28:12.923Z,73.26
2022-08-05T04:30:39.794Z,72.58
2022-08-05T04:33:06.395Z,72.89
2022-08-05T04:36:10.689Z,73.61
2022-08-05T04:38:21.055Z,73.68
2022-08-05T04:40:50.685Z,73.78
2022-08-05T04:43:17.747Z,74.23
2022-08-05T04:45:54.740Z,73.95
2022-08-05T04:48:28.093Z,73.70
2022-08-05T04:51:03.513Z,73.59
2022-08-05T04:53:38.804Z,73.43
2022-08-05T04:56:32.342Z,73.40
2022-08-05T04:58:54.565Z,73.60
2022-08-05T05:02:08.030Z,73.64
2022-08-05T05:04:07.826Z,73.49
2022-08-05T05:06:44.028Z,73.49
2022-08-05T05:09:14.272Z,73.78
2022-08-05T05:11:53.068Z,74.17
2022-08-05T05:14:31.942Z,74.70
2022-08-05T05:17:00.607Z,74.59
2022-08-05T05:19:36.939Z,74.37
2022-08-05T05:22:22.624Z,74.36
2022-08-05T05:24:57.410Z,74.22
2022-08-05T05:27:45.867Z,73.97
2022-08-05T05:30:30.519Z,73.87
2022-08-05T05:33:03.880Z,73.83
2022-08-05T05:35:42.504Z,73.73
2022-08-05T05:38:13.712Z,73.49
2022-08-05T05:40:48.257Z,72.99
2022-08-05T05:43:54.398Z,72.73
2022-08-05T05:46:17.322Z,72.54
2022-08-05T05:48:46.009Z,72.18
2022-08-05T05:51:22.435Z,71.92
2022-08-05T05:53:57.239Z,71.73
2022-08-05T05:56:26.235Z,71.42
2022-08-05T05:59:03.241Z,71.35
2022-08-05T06:01:37.022Z,71.03
2022-08-05T06:04:11.945Z,70.89
2022-08-05T06:06:42.904Z,70.65
2022-08-05T06:09:17.679Z,70.47
2022-08-05T06:12:01.810Z,70.62
2022-08-05T06:14:30.677Z,70.40
2022-08-05T06:16:57.889Z,70.10
2022-08-05T06:19:26.206Z,70.15
2022-08-05T06:22:03.001Z,69.84
2022-08-05T06:24:30.076Z,69.32
2022-08-05T06:26:57.820Z,68.87
2022-08-05T06:29:46.346Z,68.83
2022-08-05T06:32:21.207Z,68.12
2022-08-05T06:34:56.404Z,67.34
2022-08-05T06:37:56.926Z,66.74
2022-08-05T06:40:11.902Z,65.84
2022-08-05T06:42:39.714Z,65.09
2022-08-05T06:45:08.623Z,64.32
2022-08-05T06:48:37.486Z,63.73
2022-08-05T06:50:22.394Z,62.37
2022-08-05T06:52:58.770Z,61.77
2022-08-05T06:55:36.523Z,62.13
2022-08-05T06:58:29.826Z,61.60
2022-08-05T07:00:50.964Z,61.51
2022-08-05T07:03:17.804Z,61.90
2022-08-05T07:05:46.264Z,61.23
2022-08-05T07:08:13.447Z,60.39
2022-08-05T07:10:53.294Z,59.27
2022-08-05T07:13:57.611Z,58.31
2022-08-05T07:18:02.351Z,54.82
2022-08-05T07:22:28.346Z,54.15
2022-08-05T07:25:23.585Z,53.24
2022-08-05T07:27:57.513Z,52.46
2022-08-05T07:30:32.783Z,51.52
2022-08-05T07:33:08.880Z,50.32
2022-08-05T07:36:04.134Z,50.96
2022-08-05T07:38:34.378Z,50.60
2022-08-05T07:42:07.063Z,49.38
2022-08-05T07:43:58.659Z,48.56
2022-08-05T07:46:27.170Z,48.04
2022-08-05T07:49:02.944Z,48.40
2022-08-05T07:51:40.634Z,48.62
2022-08-05T07:54:16.081Z,48.61
2022-08-05T07:57:01.857Z,47.33
2022-08-05T07:59:40.455Z,47.39
2022-08-05T08:02:17.131Z,47.45
2022-08-05T08:04:49.533Z,46.30
2022-08-05T08:07:18.237Z,45.60
2022-08-05T08:09:49.346Z,45.89
2022-08-05T08:12:37.025Z,44.10
2022-08-05T08:15:09.727Z,42.39
2022-08-05T08:17:45.987Z,40.77
2022-08-05T08:20:42.569Z,40.77
2022-08-05T08:23:03.391Z,42.59
2022-08-05T08:26:00.393Z,42.42
2022-08-05T08:28:18.959Z,43.44
2022-08-05T08:31:02.583Z,42.76
2022-08-05T08:33:35.980Z,42.27
2022-08-05T08:36:40.248Z,42.73
2022-08-05T08:38:55.468Z,40.90
2022-08-05T08:41:26.205Z,41.24
2022-08-05T08:45:18.095Z,39.35
2022-08-05T08:47:02.839Z,39.38
2022-08-05T08:50:05.915Z,39.18
2022-08-05T08:52:33.369Z,39.17
2022-08-05T08:55:00.318Z,40.13
2022-08-05T08:57:42.000Z,40.51
2022-08-05T09:00:15.666Z,38.79
2022-08-05T09:02:46.641Z,39.46
2022-08-05T09:05:17.605Z,39.88
2022-08-05T09:07:57.800Z,41.66
2022-08-05T09:10:27.856Z,41.13
2022-08-05T09:12:57.057Z,42.44
2022-08-05T09:15:31.606Z,41.64
2022-08-05T09:18:03.518Z,41.85
2022-08-05T09:20:37.324Z,42.13
2022-08-05T09:23:18.724Z,43.04
2022-08-05T09:26:01.375Z,43.35
2022-08-05T09:28:34.243Z,43.80
2022-08-05T09:31:23.283Z,42.11
2022-08-05T09:33:59.076Z,41.70
2022-08-05T09:36:38.146Z,42.03
2022-08-05T09:39:16.378Z,42.36
2022-08-05T09:42:03.848Z,42.08
2022-08-05T09:44:38.410Z,42.25
2022-08-05T09:47:48.175Z,41.71
2022-08-05T09:50:37.307Z,42.02
2022-08-05T09:53:05.048Z,40.71
2022-08-05T09:55:57.523Z,41.72
2022-08-05T09:58:23.647Z,42.67
2022-08-05T10:01:07.292Z,40.96
2022-08-05T10:03:58.880Z,40.33
2022-08-05T10:06:30.948Z,42.05
2022-08-05T10:09:27.535Z,43.26
2022-08-05T10:12:18.781Z,44.55
2022-08-05T10:15:13.656Z,45.21
2022-08-05T10:17:54.418Z,44.69
2022-08-05T10:20:23.947Z,45.94
2022-08-05T10:22:51.999Z,46.43
2022-08-05T10:25:19.692Z,46.78
2022-08-05T10:28:13.326Z,46.95
2022-08-05T10:32:49.067Z,46.80
2022-08-05T10:33:28.803Z,46.75
2022-08-05T10:35:59.754Z,46.08
2022-08-05T10:38:28.548Z,46.85
2022-08-05T10:41:05.306Z,48.67
2022-08-05T10:43:44.812Z,48.77
2022-08-05T10:46:14.365Z,49.54
2022-08-05T10:48:56.614Z,49.60
2022-08-05T10:51:29.047Z,49.61
2022-08-05T10:54:23.152Z,48.83
2022-08-05T10:56:57.323Z,48.62
2022-08-05T11:00:03.769Z,49.70
2022-08-05T11:02:34.809Z,48.52
2022-08-05T11:05:09.325Z,46.53
2022-08-05T11:08:01.792Z,45.53
2022-08-05T11:10:36.964Z,44.21
2022-08-05T11:13:05.733Z,43.68
2022-08-05T11:16:00.346Z,42.73
2022-08-05T11:18:35.194Z,42.27
2022-08-05T11:21:11.361Z,42.36
2022-08-05T11:24:04.103Z,41.00
2022-08-05T11:26:43.408Z,37.45
2022-08-05T11:29:37.402Z,38.12
2022-08-05T11:32:23.526Z,38.48
2022-08-05T11:34:54.423Z,38.19
2022-08-05T11:38:29.935Z,38.27
2022-08-05T11:41:13.956Z,34.41
2022-08-05T11:44:07.590Z,31.05
2022-08-05T11:46:58.206Z,35.58
2022-08-05T11:49:36.085Z,34.80
2022-08-05T11:52:08.299Z,31.10
2022-08-05T11:54:38.189Z,32.16
2022-08-05T11:57:24.161Z,32.21
2022-08-05T11:59:53.681Z,33.22
2022-08-05T12:02:33.156Z,34.60
2022-08-05T12:05:07.710Z,36.19
2022-08-05T12:08:08.894Z,35.17
2022-08-05T12:10:43.053Z,34.83
2022-08-05T12:13:15.551Z,31.98
2022-08-05T12:15:49.723Z,32.79
2022-08-05T12:18:20.593Z,32.99
2022-08-05T12:20:50.816Z,33.35
2022-08-05T12:23:17.424Z,34.45
2022-08-05T12:25:57.006Z,35.82
2022-08-05T12:28:37.791Z,33.17
2022-08-05T12:31:05.226Z,32.92
2022-08-05T12:33:36.590Z,32.75
2022-08-05T12:36:08.764Z,32.19
2022-08-05T12:38:40.107Z,32.63
2022-08-05T12:41:13.261Z,32.08
2022-08-05T12:43:57.344Z,33.45
2022-08-05T12:46:29.375Z,35.39
2022-08-05T12:49:13.517Z,35.10
2022-08-05T12:52:12.956Z,34.37
2022-08-05T12:54:40.404Z,33.99
2022-08-05T12:57:18.161Z,33.85
2022-08-05T13:01:57.919Z,33.11
2022-08-05T13:02:39.969Z,33.41
2022-08-05T13:05:08.353Z,31.46
2022-08-05T13:08:00.115Z,32.06
2022-08-05T13:10:28.841Z,32.34
2022-08-05T13:12:58.166Z,33.67
2022-08-05T13:15:36.119Z,34.34
2022-08-05T13:18:19.912Z,35.35
2022-08-05T13:20:47.297Z,35.34
2022-08-05T13:23:16.404Z,35.52
2022-08-05T13:25:51.872Z,36.17
2022-08-05T13:28:25.379Z,36.00
2022-08-05T13:30:53.290Z,35.14
2022-08-05T13:34:23.937Z,35.69
2022-08-05T13:36:09.098Z,34.86
2022-08-05T13:38:38.526Z,33.85
2022-08-05T13:41:09.409Z,34.18
2022-08-05T13:43:44.271Z,34.35
2022-08-05T13:46:13.395Z,34.31
2022-08-05T13:48:58.204Z,31.70
2022-08-05T13:51:40.297Z,32.58
2022-08-05T13:54:12.258Z,32.52
2022-08-05T13:56:44.909Z,34.36
2022-08-05T13:59:19.999Z,35.70
2022-08-05T14:01:59.005Z,34.69
2022-08-05T14:04:51.045Z,36.43
2022-08-05T14:07:25.411Z,36.36
2022-08-05T14:10:13.623Z,36.98
2022-08-05T14:12:48.514Z,37.28
2022-08-05T14:16:07.367Z,37.20
2022-08-05T14:18:03.958Z,37.05
2022-08-05T14:20:32.825Z,36.90
2022-08-05T14:22:59.919Z,36.70
2022-08-05T14:25:28.016Z,36.32
2022-08-05T14:27:55.385Z,35.53
2022-08-05T14:30:22.334Z,36.01
2022-08-05T14:32:52.578Z,36.24
2022-08-05T14:35:20.758Z,36.63
2022-08-05T14:37:53.512Z,36.16
2022-08-05T14:40:24.571Z,36.51
2022-08-05T14:42:51.890Z,36.74
2022-08-05T14:45:18.883Z,37.21
2022-08-05T14:48:03.543Z,38.32
2022-08-05T14:50:32.204Z,38.43
2022-08-05T14:53:00.265Z,38.33
2022-08-05T14:55:38.520Z,38.28
2022-08-05T14:58:10.966Z,38.36
2022-08-05T15:00:39.666Z,39.11
2022-08-05T15:03:33.866Z,39.30
2022-08-05T15:06:07.608Z,39.89
2022-08-05T15:09:01.279Z,40.46
2022-08-05T15:11:52.611Z,40.56
2022-08-05T15:14:33.306Z,40.33
2022-08-05T15:17:01.690Z,40.63
2022-08-05T15:19:30.710Z,40.86
2022-08-05T15:21:59.917Z,40.84
2022-08-05T15:24:27.876Z,40.94
2022-08-05T15:26:55.972Z,40.91
2022-08-05T15:29:23.553Z,40.35
2022-08-05T15:31:56.545Z,41.17
2022-08-05T15:34:32.227Z,39.85
2022-08-05T15:37:06.156Z,39.44
2022-08-05T15:41:03.178Z,40.60
2022-08-05T15:42:53.610Z,39.61
2022-08-05T15:45:15.768Z,40.65
2022-08-05T15:47:44.174Z,41.01
2022-08-05T15:50:15.482Z,38.97
2022-08-05T15:52:53.322Z,40.60
2022-08-05T15:55:24.630Z,41.46
2022-08-05T15:58:08.516Z,41.49
2022-08-05T16:00:50.358Z,40.66
2022-08-05T16:03:23.545Z,41.41
2022-08-05T16:05:52.794Z,42.20
2022-08-05T16:08:22.619Z,42.93
2022-08-05T16:10:50.633Z,42.63
2022-08-05T16:13:23.407Z,41.89
2022-08-05T16:15:51.899Z,40.02
2022-08-05T16:18:19.649Z,41.34
2022-08-05T16:20:46.294Z,40.33
2022-08-05T16:23:12.962Z,40.69
2022-08-05T16:25:40.019Z,39.98
2022-08-05T16:28:09.786Z,41.86
2022-08-05T16:30:37.413Z,41.76
2022-08-05T16:33:04.565Z,43.06
2022-08-05T16:35:33.581Z,42.64
2022-08-05T16:38:18.575Z,42.00
2022-08-05T16:41:00.265Z,41.98
2022-08-05T16:43:32.076Z,41.90
2022-08-05T16:46:04.033Z,43.18
2022-08-05T16:48:35.932Z,42.64
2022-08-05T16:51:03.965Z,42.89
2022-08-05T16:54:03.991Z,43.58
2022-08-05T16:56:23.683Z,43.47
2022-08-05T16:58:50.427Z,39.75
2022-08-05T17:01:18.909Z,39.06
2022-08-05T17:03:46.011Z,43.20
2022-08-05T17:06:13.228Z,42.41
2022-08-05T17:08:53.496Z,40.21
2022-08-05T17:11:25.510Z,41.88
2022-08-05T17:14:00.488Z,43.61
2022-08-05T17:16:37.174Z,44.94
2022-08-05T17:19:09.583Z,45.47
2022-08-05T17:21:37.754Z,46.37
2022-08-05T17:24:27.943Z,47.26
2022-08-05T17:26:56.311Z,47.34
2022-08-05T17:29:33.813Z,46.66
2022-08-05T17:32:11.412Z,47.19
2022-08-05T17:34:38.499Z,47.34
2022-08-05T17:37:40.688Z,47.21
2022-08-05T17:40:10.111Z,47.54
2022-08-05T17:42:41.626Z,47.66
2022-08-05T17:45:20.389Z,47.85
2022-08-05T17:47:53.936Z,48.74
2022-08-05T17:50:28.435Z,48.80
2022-08-05T17:52:59.182Z,48.84
2022-08-05T17:55:27.297Z,48.93
2022-08-05T17:58:02.298Z,48.90
2022-08-05T18:00:29.754Z,48.56
2022-08-05T18:02:56.973Z,48.51
2022-08-05T18:05:24.133Z,48.87
2022-08-05T18:07:55.096Z,49.22
2022-08-05T18:10:24.554Z,49.43
2022-08-05T18:12:52.381Z,49.23
2022-08-05T18:15:18.991Z,49.24
2022-08-05T18:18:01.503Z,49.49
2022-08-05T18:20:31.605Z,50.42
2022-08-05T18:23:09.433Z,50.72
2022-08-05T18:25:45.613Z,51.05
2022-08-05T18:28:16.120Z,51.54
2022-08-05T18:30:50.833Z,52.85
2022-08-05T18:33:23.103Z,52.99
2022-08-05T18:36:04.241Z,53.15
2022-08-05T18:38:36.427Z,54.07
2022-08-05T18:41:56.161Z,53.95
2022-08-05T18:43:51.375Z,54.53
2022-08-05T18:46:20.063Z,54.65
2022-08-05T18:48:52.287Z,54.79
2022-08-05T18:52:03.975Z,54.96
2022-08-05T18:54:31.345Z,55.47
2022-08-05T18:57:01.853Z,55.84
2022-08-05T18:59:43.182Z,55.72
2022-08-05T19:02:26.627Z,55.90
2022-08-05T19:05:02.671Z,56.08
2022-08-05T19:07:57.573Z,56.22
2022-08-05T19:10:28.101Z,56.70
2022-08-05T19:12:58.314Z,56.50
2022-08-05T19:15:57.293Z,56.99
2022-08-05T19:18:22.350Z,57.44
2022-08-05T19:20:52.339Z,57.63
2022-08-05T19:24:04.397Z,57.76
2022-08-05T19:26:09.312Z,58.36
2022-08-05T19:28:41.489Z,58.48
2022-08-05T19:31:09.192Z,58.55
2022-08-05T19:33:40.751Z,58.78
2022-08-05T19:36:16.919Z,58.79
2022-08-05T19:38:45.538Z,58.42
2022-08-05T19:41:12.370Z,58.85
2022-08-05T19:44:06.549Z,58.75
2022-08-05T19:46:30.955Z,59.17
2022-08-05T19:49:03.301Z,59.70
2022-08-05T19:52:05.821Z,59.59
2022-08-05T19:54:32.966Z,59.09
2022-08-05T19:57:02.303Z,59.33
2022-08-05T19:59:56.005Z,59.70
2022-08-05T20:02:17.550Z,60.21
2022-08-05T20:04:45.789Z,60.24
2022-08-05T20:07:14.030Z,60.72
2022-08-05T20:09:54.008Z,61.03
2022-08-05T20:12:23.443Z,60.61
2022-08-05T20:14:52.061Z,60.83
2022-08-05T20:17:19.270Z,61.32
2022-08-05T20:19:50.093Z,61.66
2022-08-05T20:22:17.004Z,61.89
2022-08-05T20:24:43.524Z,62.12
2022-08-05T20:27:11.099Z,62.20
2022-08-05T20:29:39.699Z,62.22
2022-08-05T20:32:06.613Z,62.66
2022-08-05T20:34:33.314Z,62.80
2022-08-05T20:37:00.939Z,62.75
2022-08-05T20:39:35.601Z,63.09
2022-08-05T20:42:04.812Z,63.66
2022-08-05T20:44:32.775Z,63.87
2022-08-05T20:47:07.484Z,63.85
2022-08-05T20:49:39.318Z,64.19
2022-08-05T20:52:07.896Z,64.60
2022-08-05T20:54:43.349Z,64.60
2022-08-05T20:57:42.050Z,65.23
2022-08-05T21:00:35.039Z,65.18
2022-08-05T21:03:01.501Z,65.29
2022-08-05T21:05:37.969Z,65.26
2022-08-05T21:08:14.910Z,65.53
2022-08-05T21:10:49.029Z,65.71
2022-08-05T21:13:26.048Z,65.27
2022-08-05T21:16:03.592Z,65.84
2022-08-05T21:18:30.433Z,65.72
2022-08-05T21:20:57.503Z,66.19
2022-08-05T21:23:24.582Z,65.69
2022-08-05T21:25:51.543Z,65.92
2022-08-05T21:28:48.015Z,66.01
2022-08-05T21:31:18.062Z,66.22
2022-08-05T21:33:47.692Z,66.21
2022-08-05T21:36:19.108Z,66.31
2022-08-05T21:38:54.769Z,66.44
2022-08-05T21:41:21.493Z,66.27
2022-08-05T21:43:51.014Z,65.96
2022-08-05T21:46:28.609Z,65.75
2022-08-05T21:48:56.821Z,65.68
2022-08-05T21:52:16.035Z,65.20
2022-08-05T21:54:12.917Z,65.43
2022-08-05T21:56:44.660Z,65.39
2022-08-05T21:59:23.959Z,65.39
2022-08-05T22:01:54.706Z,65.35
2022-08-05T22:04:25.495Z,65.49
2022-08-05T22:06:52.702Z,65.65
2022-08-05T22:09:21.643Z,65.48
2022-08-05T22:11:49.226Z,65.63
2022-08-05T22:14:33.443Z,66.02
2022-08-05T22:17:03.935Z,65.67
2022-08-05T22:20:00.541Z,65.77
2022-08-05T22:22:27.254Z,65.71
2022-08-05T22:25:18.147Z,65.63
2022-08-05T22:28:09.384Z,65.34
2022-08-05T22:30:53.533Z,65.42
2022-08-05T22:33:56.946Z,64.69
2022-08-05T22:36:09.520Z,64.55
2022-08-05T22:38:36.801Z,65.03
2022-08-05T22:41:09.899Z,65.81
2022-08-05T22:43:38.136Z,65.97
2022-08-05T22:46:13.255Z,66.06
2022-08-05T22:48:50.515Z,66.25
2022-08-05T22:51:22.672Z,66.02
2022-08-05T22:53:50.273Z,66.04
2022-08-05T22:56:17.781Z,66.24
2022-08-05T22:58:58.058Z,66.01
2022-08-05T23:02:04.553Z,66.02
2022-08-05T23:04:13.495Z,66.16
2022-08-05T23:06:41.159Z,66.33
2022-08-05T23:09:28.089Z,66.58
2022-08-05T23:11:55.787Z,66.67
2022-08-05T23:14:32.085Z,66.81
2022-08-05T23:17:24.026Z,66.63
2022-08-05T23:20:00.488Z,66.92
2022-08-05T23:22:29.484Z,66.69
2022-08-05T23:24:57.789Z,66.95
2022-08-05T23:27:31.235Z,66.79
2022-08-05T23:29:58.469Z,66.54
2022-08-05T23:32:26.935Z,66.41
2022-08-05T23:34:53.883Z,66.03
2022-08-05T23:37:20.478Z,66.02
2022-08-05T23:39:53.611Z,66.25
2022-08-05T23:42:23.287Z,66.09
2022-08-05T23:44:55.393Z,66.71
2022-08-05T23:47:21.993Z,67.03
2022-08-05T23:49:52.004Z,67.40
2022-08-05T23:52:32.607Z,67.22
2022-08-05T23:55:07.129Z,67.02
2022-08-05T23:57:36.233Z,67.10
